Aérodrome :
LOGIN :

S'inscrire | Disclaimer

   EN    FR    IT 

 










Légende :    VFR   VFR Marginal   IFR   IFR Intensif   IFR Très Intensif
Visi : 
Plafond : 
>= 8 km
>= 3000ft
5 à 8 km
1000 à 3000 ft
1500m à 5 km
500 à 1000 ft
800 à 1500m
200 à 500 ft
< 800m
< 200 ft
Symboles :   Orages  Brouillard  Fortes neiges  Fortes précipitations  Vent > 20 kt
SIGMETs :   Divers  Orages  Givrage  Turbulence  Onde Orograph.  Cendres Volcan.






- Altitude de l'aérodrome : 659 ft
- Code IATA : LYN


LFLY - Lyon Bron

DERNIER METAR :
  • 190230Z AUTO 09005KT 040V160 9999 -RA SCT029/// BKN035/// BKN041/// ///TCU 14/13 Q1014 TEMPO 4000 SHRA

METARs EXPIRÉS :
  • 190200Z AUTO 14005KT 9999 -RA ///TCU 14/13 Q1015 TEMPO 4000 SHRA
  • 190130Z AUTO 13003KT 100V160 8000 RA FEW035/// BKN078/// BKN100/// ///CB 15/13 Q1015 BECMG NSW BKN030
  • 190100Z AUTO 14003KT 9999 ///CB 15/13 Q1015 TEMPO 32015G25KT 2000 TSRA BECMG BKN030
  • 190030Z AUTO 14004KT 110V170 9999 -RA ///CB 15/13 Q1015 TEMPO 32015G25KT 2000 TSRA BECMG BKN030
  • 190000Z AUTO 08004KT 8000 -RA ///CB 15/13 Q1015 TEMPO 32015G25KT 2000 TSRA BKN012 BKN040CB

TAF AMD TAF LFLY
Valide du 19 à 01h jusqu'au 20 à 00h UTC


190124Z 1901/1924 16005KT 9999 SCT015 BKN060
TEMPO 1901/1905 4000 SHRA BKN015 BKN045TCU
BECMG 1902/1905 BKN030
TEMPO 1914/1924 4000 SHRA BKN015 BKN030TCU
ATIS : +33 4 72 15 87 96



MET'MAP, la Météo Aéronautique d'un coup d'oeil ! - Copyright ORBIFLY Décembre 2007 - Disclaimer

ORBIFLY MET'MAP TEAM :

Programmation & Développement : Alexandra Zaïnal
Sur une idée originale de : Baudouin d'Aumeries
Assistance à la programmation : Marc-Olivier Méhu
Soutien technique & logistique : Manuel Goepfert

Contact : metmap@orbifly.com




SOURCES & CREDITS :

   NOAA